createdAt,value
2022-08-05T00:02:07.705Z,1.00
2022-08-05T00:04:40.526Z,1.00
2022-08-05T00:07:26.883Z,1.00
2022-08-05T00:10:01.426Z,1.00
2022-08-05T00:12:30.553Z,1.00
2022-08-05T00:14:59.725Z,1.00
2022-08-05T00:17:49.421Z,1.00
2022-08-05T00:20:20.225Z,1.00
2022-08-05T00:22:57.397Z,1.00
2022-08-05T00:25:45.685Z,1.00
2022-08-05T00:28:15.664Z,1.00
2022-08-05T00:30:52.024Z,1.00
2022-08-05T00:34:55.262Z,1.00
2022-08-05T00:36:16.172Z,1.00
2022-08-05T00:39:01.334Z,1.00
2022-08-05T00:41:52.074Z,1.00
2022-08-05T00:44:21.581Z,1.00
2022-08-05T00:46:54.257Z,1.00
2022-08-05T00:49:32.518Z,1.00
2022-08-05T00:52:02.988Z,1.00
2022-08-05T00:54:33.942Z,1.00
2022-08-05T00:57:03.002Z,1.00
2022-08-05T00:59:34.710Z,1.00
2022-08-05T01:02:13.938Z,1.00
2022-08-05T01:04:45.736Z,1.00
2022-08-05T01:07:19.803Z,1.30
2022-08-05T01:09:55.564Z,1.90
2022-08-05T01:12:29.741Z,2.50
2022-08-05T01:15:18.162Z,3.00
2022-08-05T01:18:04.824Z,3.50
2022-08-05T01:20:53.251Z,4.00
2022-08-05T01:23:42.293Z,4.30
2022-08-05T01:26:41.451Z,5.00
2022-08-05T01:29:23.077Z,5.60
2022-08-05T01:32:00.448Z,6.40
2022-08-05T01:34:36.266Z,6.80
2022-08-05T01:37:18.109Z,7.50
2022-08-05T01:39:59.182Z,8.40
2022-08-05T01:42:33.037Z,9.60
2022-08-05T01:45:04.820Z,10.40
2022-08-05T01:47:43.265Z,11.30
2022-08-05T01:50:18.821Z,12.50
2022-08-05T01:53:03.950Z,13.50
2022-08-05T01:55:37.208Z,14.50
2022-08-05T01:58:40.243Z,15.60
2022-08-05T02:01:02.843Z,16.70
2022-08-05T02:03:37.635Z,17.50
2022-08-05T02:06:33.450Z,18.80
2022-08-05T02:09:00.478Z,20.20
2022-08-05T02:11:42.233Z,21.70
2022-08-05T02:14:25.382Z,22.90
2022-08-05T02:17:01.975Z,24.00
2022-08-05T02:19:47.243Z,24.90
2022-08-05T02:22:26.742Z,26.50
2022-08-05T02:25:05.033Z,27.90
2022-08-05T02:27:59.885Z,29.70
2022-08-05T02:30:39.021Z,32.20
2022-08-05T02:33:38.617Z,35.90
2022-08-05T02:36:13.759Z,38.10
2022-08-05T02:38:53.613Z,40.90
2022-08-05T02:41:28.685Z,43.10
2022-08-05T02:44:13.178Z,44.90
2022-08-05T02:46:58.837Z,47.90
2022-08-05T02:49:37.762Z,51.50
2022-08-05T02:52:25.968Z,54.00
2022-08-05T02:55:01.836Z,56.60
2022-08-05T02:58:12.235Z,58.90
2022-08-05T03:00:26.853Z,60.60
2022-08-05T03:02:59.610Z,61.60
2022-08-05T03:06:56.474Z,64.00
2022-08-05T03:08:29.575Z,64.80
2022-08-05T03:11:53.554Z,68.40
2022-08-05T03:13:51.683Z,69.90
2022-08-05T03:16:32.398Z,72.90
2022-08-05T03:19:06.484Z,74.40
2022-08-05T03:21:48.869Z,76.40
2022-08-05T03:24:29.497Z,78.20
2022-08-05T03:27:01.456Z,74.70
2022-08-05T03:29:45.087Z,75.70
2022-08-05T03:32:21.959Z,75.70
2022-08-05T03:35:00.725Z,74.20
2022-08-05T03:37:41.026Z,72.70
2022-08-05T03:40:24.330Z,72.60
2022-08-05T03:43:01.387Z,71.80
2022-08-05T03:45:57.861Z,69.80
2022-08-05T03:48:29.150Z,70.90
2022-08-05T03:52:38.247Z,70.20
2022-08-05T03:55:34.206Z,67.60
2022-08-05T03:57:16.751Z,67.10
2022-08-05T03:59:55.729Z,66.40
2022-08-05T04:02:38.375Z,65.80
2022-08-05T04:05:16.132Z,64.60
2022-08-05T04:07:57.563Z,62.60
2022-08-05T04:10:37.184Z,59.20
2022-08-05T04:13:08.647Z,56.80
2022-08-05T04:15:38.242Z,53.80
2022-08-05T04:18:25.809Z,52.40
2022-08-05T04:20:56.247Z,50.80
2022-08-05T04:24:04.695Z,49.60
2022-08-05T04:26:19.118Z,48.40
2022-08-05T04:28:51.817Z,45.90
2022-08-05T04:31:21.548Z,43.00
2022-08-05T04:34:17.450Z,41.20
2022-08-05T04:36:49.697Z,41.00
2022-08-05T04:39:19.618Z,41.40
2022-08-05T04:41:51.338Z,42.20
2022-08-05T04:44:29.097Z,42.80
2022-08-05T04:46:59.496Z,40.70
2022-08-05T04:49:38.619Z,36.90
2022-08-05T04:52:18.712Z,34.00
2022-08-05T04:54:49.481Z,31.90
2022-08-05T04:57:20.083Z,30.00
2022-08-05T04:59:49.494Z,28.00
2022-08-05T05:02:37.282Z,26.90
2022-08-05T05:05:16.780Z,25.70
2022-08-05T05:08:02.010Z,24.50
2022-08-05T05:10:33.235Z,24.50
2022-08-05T05:13:04.567Z,25.40
2022-08-05T05:15:56.841Z,25.60
2022-08-05T05:18:28.759Z,27.50
2022-08-05T05:21:05.583Z,28.30
2022-08-05T05:23:39.198Z,29.60
2022-08-05T05:26:28.391Z,31.00
2022-08-05T05:29:14.325Z,31.70
2022-08-05T05:31:46.512Z,32.40
2022-08-05T05:34:18.072Z,33.20
2022-08-05T05:36:53.005Z,35.00
2022-08-05T05:39:22.068Z,36.30
2022-08-05T05:41:54.424Z,37.20
2022-08-05T05:44:36.699Z,37.10
2022-08-05T05:47:13.274Z,35.70
2022-08-05T05:50:01.586Z,35.10
2022-08-05T05:52:34.789Z,35.30
2022-08-05T05:55:13.526Z,35.50
2022-08-05T05:57:52.875Z,35.50
2022-08-05T06:00:27.722Z,36.30
2022-08-05T06:03:40.672Z,36.70
2022-08-05T06:05:56.645Z,37.30
2022-08-05T06:08:26.338Z,38.50
2022-08-05T06:11:02.976Z,38.80
2022-08-05T06:13:40.930Z,38.10
2022-08-05T06:16:30.902Z,39.50
2022-08-05T06:19:05.671Z,42.10
2022-08-05T06:21:42.953Z,43.80
2022-08-05T06:24:25.624Z,44.60
2022-08-05T06:26:55.584Z,46.40
2022-08-05T06:29:46.307Z,48.00
2022-08-05T06:32:25.675Z,49.40
2022-08-05T06:34:59.979Z,50.50
2022-08-05T06:37:56.462Z,52.00
2022-08-05T06:40:28.006Z,52.40
2022-08-05T06:43:01.440Z,52.10
2022-08-05T06:45:44.466Z,49.80
2022-08-05T06:48:52.623Z,50.90
2022-08-05T06:51:12.028Z,54.20
2022-08-05T06:53:53.510Z,54.50
2022-08-05T06:56:26.750Z,55.20
2022-08-05T06:58:56.547Z,56.10
2022-08-05T07:01:27.770Z,53.20
2022-08-05T07:04:03.457Z,51.50
2022-08-05T07:06:33.049Z,49.30
2022-08-05T07:09:04.733Z,45.40
2022-08-05T07:11:36.746Z,43.80
2022-08-05T07:14:29.573Z,41.70
2022-08-05T07:18:00.997Z,39.10
2022-08-05T07:22:46.004Z,37.80
2022-08-05T07:25:23.487Z,39.60
2022-08-05T07:28:11.411Z,40.40
2022-08-05T07:30:41.025Z,40.90
2022-08-05T07:33:17.421Z,41.80
2022-08-05T07:36:04.783Z,43.20
2022-08-05T07:38:43.421Z,44.20
2022-08-05T07:42:09.595Z,44.50
2022-08-05T07:44:14.430Z,44.90
2022-08-05T07:46:50.480Z,46.20
2022-08-05T07:49:20.952Z,45.70
2022-08-05T07:51:54.684Z,46.90
2022-08-05T07:54:30.393Z,49.70
2022-08-05T07:57:22.835Z,51.00
2022-08-05T07:59:51.174Z,55.10
2022-08-05T08:02:26.534Z,57.60
2022-08-05T08:05:00.119Z,61.00
2022-08-05T08:07:39.465Z,64.40
2022-08-05T08:10:20.741Z,63.80
2022-08-05T08:12:50.421Z,64.80
2022-08-05T08:15:37.353Z,63.80
2022-08-05T08:18:14.221Z,66.60
2022-08-05T08:21:03.349Z,70.00
2022-08-05T08:24:01.457Z,72.40
2022-08-05T08:26:29.624Z,72.60
2022-08-05T08:29:09.767Z,69.20
2022-08-05T08:31:50.605Z,1.00
2022-08-05T08:34:30.706Z,1.00
2022-08-05T08:37:04.843Z,1.00
2022-08-05T08:39:37.377Z,1.00
2022-08-05T08:42:34.495Z,1.00
2022-08-05T08:45:21.058Z,1.00
2022-08-05T08:48:11.370Z,1.00
2022-08-05T08:51:03.454Z,1.00
2022-08-05T08:53:44.253Z,1.00
2022-08-05T08:56:16.038Z,1.00
2022-08-05T08:58:48.657Z,1.00
2022-08-05T09:01:19.675Z,1.00
2022-08-05T09:03:54.421Z,1.00
2022-08-05T09:06:30.005Z,1.00
2022-08-05T09:09:02.219Z,1.00
2022-08-05T09:11:51.980Z,1.00
2022-08-05T09:14:56.816Z,1.00
2022-08-05T09:17:41.265Z,1.00
2022-08-05T09:20:05.847Z,1.00
2022-08-05T09:23:18.952Z,1.00
2022-08-05T09:26:02.229Z,1.00
2022-08-05T09:28:36.672Z,1.00
2022-08-05T09:31:18.109Z,1.00
2022-08-05T09:34:01.666Z,1.00
2022-08-05T09:36:56.278Z,1.00
2022-08-05T09:39:45.908Z,1.00
2022-08-05T09:42:24.219Z,1.00
2022-08-05T09:46:04.832Z,1.00
2022-08-05T09:47:57.816Z,1.00
2022-08-05T09:50:43.821Z,1.00
2022-08-05T09:53:22.941Z,1.00
2022-08-05T09:56:11.424Z,1.00
2022-08-05T09:58:43.297Z,1.00
2022-08-05T10:01:31.709Z,1.00
2022-08-05T10:04:10.335Z,1.00
2022-08-05T10:06:54.891Z,1.00
2022-08-05T10:09:29.761Z,1.00
2022-08-05T10:12:30.199Z,1.00
2022-08-05T10:15:20.476Z,17.50
2022-08-05T10:18:14.344Z,1.00
2022-08-05T10:20:49.247Z,21.60
2022-08-05T10:23:34.602Z,29.90
2022-08-05T10:26:14.376Z,1.00
2022-08-05T10:28:46.412Z,7.40
2022-08-05T10:32:49.144Z,1.00
2022-08-05T10:34:11.148Z,1.00
2022-08-05T10:36:43.001Z,1.00
2022-08-05T10:39:24.208Z,1.00
2022-08-05T10:42:18.643Z,1.00
2022-08-05T10:45:20.969Z,1.00
2022-08-05T10:47:56.405Z,1.00
2022-08-05T10:51:04.433Z,25.30
2022-08-05T10:53:46.199Z,74.20
2022-08-05T10:56:25.170Z,99.90
2022-08-05T11:00:01.147Z,1.00
2022-08-05T11:02:14.601Z,1.00
2022-08-05T11:05:08.118Z,1.00
2022-08-05T11:08:01.792Z,1.00
2022-08-05T11:10:37.868Z,1.00
2022-08-05T11:13:55.020Z,1.00
2022-08-05T11:16:47.764Z,99.90
2022-08-05T11:20:17.625Z,48.60
2022-08-05T11:22:44.139Z,99.90
2022-08-05T11:26:04.742Z,1.00
2022-08-05T11:28:50.766Z,48.10
2022-08-05T11:31:58.330Z,45.20
2022-08-05T11:34:52.188Z,46.90
2022-08-05T11:38:37.114Z,44.90
2022-08-05T11:41:35.510Z,39.60
2022-08-05T11:44:05.173Z,37.70
2022-08-05T11:47:11.726Z,37.40
2022-08-05T11:49:29.429Z,35.90
2022-08-05T11:52:11.511Z,34.60
2022-08-05T11:54:43.517Z,32.80
2022-08-05T11:57:25.331Z,27.50
2022-08-05T11:59:56.754Z,27.20
2022-08-05T12:02:33.463Z,22.60
2022-08-05T12:05:18.261Z,22.20
2022-08-05T12:08:07.421Z,22.90
2022-08-05T12:10:45.459Z,23.70
2022-08-05T12:13:28.152Z,21.10
2022-08-05T12:16:14.950Z,20.10
2022-08-05T12:18:49.501Z,19.00
2022-08-05T12:21:29.785Z,19.50
2022-08-05T12:24:07.237Z,20.90
2022-08-05T12:26:44.091Z,20.20
2022-08-05T12:29:17.792Z,19.80
2022-08-05T12:31:53.068Z,21.00
2022-08-05T12:34:28.762Z,21.70
2022-08-05T12:37:01.141Z,20.90
2022-08-05T12:39:38.556Z,20.40
2022-08-05T12:42:15.336Z,20.40
2022-08-05T12:44:47.446Z,20.70
2022-08-05T12:47:30.450Z,19.40
2022-08-05T12:50:04.374Z,18.80
2022-08-05T12:52:41.864Z,17.70
2022-08-05T12:55:27.046Z,15.10
2022-08-05T12:58:50.507Z,12.40
2022-08-05T13:02:03.859Z,12.30
2022-08-05T13:03:45.386Z,11.90
2022-08-05T13:06:19.848Z,11.90
2022-08-05T13:08:52.227Z,12.10
2022-08-05T13:11:25.661Z,11.70
2022-08-05T13:14:36.637Z,12.30
2022-08-05T13:17:11.513Z,13.40
2022-08-05T13:19:51.964Z,13.00
2022-08-05T13:22:29.355Z,12.70
2022-08-05T13:25:05.703Z,10.70
2022-08-05T13:27:39.817Z,9.90
2022-08-05T13:30:33.896Z,9.40
2022-08-05T13:33:02.782Z,8.40
2022-08-05T13:35:47.652Z,9.30
2022-08-05T13:38:31.193Z,8.50
2022-08-05T13:41:05.896Z,7.60
2022-08-05T13:43:43.498Z,6.60
2022-08-05T13:46:35.945Z,6.80
2022-08-05T13:49:10.146Z,7.00
2022-08-05T13:51:46.026Z,7.00
2022-08-05T13:54:21.122Z,8.50
2022-08-05T13:56:54.783Z,10.10
2022-08-05T13:59:27.016Z,11.80
2022-08-05T14:02:00.492Z,13.10
2022-08-05T14:04:51.071Z,14.00
2022-08-05T14:07:25.544Z,15.10
2022-08-05T14:10:18.405Z,16.10
2022-08-05T14:12:49.112Z,16.20
2022-08-05T14:16:04.769Z,16.00
2022-08-05T14:18:18.305Z,16.30
2022-08-05T14:20:54.321Z,16.60
2022-08-05T14:23:25.423Z,16.30
2022-08-05T14:25:58.751Z,16.00
2022-08-05T14:28:29.636Z,17.20
2022-08-05T14:31:00.486Z,18.30
2022-08-05T14:33:59.435Z,19.00
2022-08-05T14:36:22.625Z,18.40
2022-08-05T14:38:52.770Z,19.20
2022-08-05T14:41:23.358Z,19.40
2022-08-05T14:44:02.167Z,19.60
2022-08-05T14:46:39.150Z,20.20
2022-08-05T14:49:10.709Z,20.60
2022-08-05T14:51:42.841Z,21.00
2022-08-05T14:54:28.854Z,21.70
2022-08-05T14:56:59.507Z,22.30
2022-08-05T14:59:35.453Z,23.40
2022-08-05T15:02:15.005Z,24.10
2022-08-05T15:04:55.530Z,24.80
2022-08-05T15:08:06.840Z,25.80
2022-08-05T15:10:13.726Z,26.70
2022-08-05T15:13:00.386Z,28.00
2022-08-05T15:15:54.198Z,29.00
2022-08-05T15:18:19.644Z,29.80
2022-08-05T15:20:50.105Z,29.60
2022-08-05T15:23:20.364Z,30.50
2022-08-05T15:25:53.795Z,31.20
2022-08-05T15:28:27.128Z,32.10
2022-08-05T15:30:57.651Z,33.10
2022-08-05T15:34:19.321Z,35.10
2022-08-05T15:36:24.455Z,38.30
2022-08-05T15:40:41.196Z,42.70
2022-08-05T15:41:58.082Z,46.60
2022-08-05T15:44:30.316Z,49.00
2022-08-05T15:47:02.325Z,51.40
2022-08-05T15:49:53.622Z,54.70
2022-08-05T15:52:51.618Z,58.50
2022-08-05T15:55:15.573Z,67.10
2022-08-05T15:57:48.852Z,79.20
2022-08-05T16:00:26.031Z,90.00
2022-08-05T16:02:59.715Z,92.20
2022-08-05T16:05:29.137Z,93.00
2022-08-05T16:08:00.052Z,92.60
2022-08-05T16:10:29.584Z,91.50
2022-08-05T16:12:59.991Z,87.80
2022-08-05T16:15:32.309Z,88.10
2022-08-05T16:18:04.282Z,90.90
2022-08-05T16:20:38.041Z,90.70
2022-08-05T16:23:09.284Z,89.80
2022-08-05T16:25:38.843Z,88.80
2022-08-05T16:28:11.321Z,88.00
2022-08-05T16:30:41.478Z,90.10
2022-08-05T16:33:10.741Z,91.60
2022-08-05T16:35:42.825Z,91.70
2022-08-05T16:38:24.238Z,91.80
2022-08-05T16:41:00.454Z,95.60
2022-08-05T16:43:33.213Z,98.70
2022-08-05T16:46:12.803Z,99.90
2022-08-05T16:48:53.350Z,99.90
2022-08-05T16:51:25.067Z,99.90
2022-08-05T16:54:05.178Z,99.90
2022-08-05T16:56:41.381Z,99.90
2022-08-05T16:59:11.866Z,99.90
2022-08-05T17:01:54.109Z,99.90
2022-08-05T17:04:27.330Z,99.90
2022-08-05T17:07:01.126Z,99.90
2022-08-05T17:09:57.515Z,99.90
2022-08-05T17:12:22.764Z,99.90
2022-08-05T17:15:15.545Z,99.90
2022-08-05T17:17:45.726Z,99.90
2022-08-05T17:20:25.047Z,99.90
2022-08-05T17:22:57.613Z,99.90
2022-08-05T17:25:40.134Z,99.90
2022-08-05T17:28:10.229Z,99.90
2022-08-05T17:30:50.551Z,99.90
2022-08-05T17:33:23.046Z,99.90
2022-08-05T17:36:07.792Z,99.90
2022-08-05T17:38:39.771Z,99.90
2022-08-05T17:41:22.923Z,99.90
2022-08-05T17:43:59.825Z,99.90
2022-08-05T17:46:30.515Z,99.90
2022-08-05T17:49:00.143Z,99.90
2022-08-05T17:51:29.910Z,99.90
2022-08-05T17:54:09.800Z,99.90
2022-08-05T17:56:40.108Z,99.90
2022-08-05T17:59:09.151Z,99.90
2022-08-05T18:01:49.627Z,99.90
2022-08-05T18:04:21.104Z,99.90
2022-08-05T18:06:56.118Z,99.90
2022-08-05T18:09:59.645Z,99.90
2022-08-05T18:12:24.016Z,99.90
2022-08-05T18:14:53.543Z,99.90
2022-08-05T18:17:59.272Z,99.90
2022-08-05T18:20:14.034Z,99.90
2022-08-05T18:22:54.078Z,99.90
2022-08-05T18:25:25.169Z,99.90
2022-08-05T18:28:05.269Z,99.90
2022-08-05T18:30:34.760Z,99.90
2022-08-05T18:33:04.079Z,99.90
2022-08-05T18:36:01.315Z,99.90
2022-08-05T18:38:25.935Z,99.90
2022-08-05T18:41:58.004Z,99.90
2022-08-05T18:43:48.541Z,99.90
2022-08-05T18:46:19.854Z,99.90
2022-08-05T18:48:51.903Z,99.90
2022-08-05T18:52:04.051Z,50.70
2022-08-05T18:54:30.883Z,25.60
2022-08-05T18:57:01.408Z,26.70
2022-08-05T18:59:44.082Z,93.10
2022-08-05T19:02:28.021Z,37.70
2022-08-05T19:06:05.549Z,50.70
2022-08-05T19:07:52.612Z,36.00
2022-08-05T19:10:28.496Z,40.00
2022-08-05T19:12:58.292Z,92.80
2022-08-05T19:15:58.138Z,52.50
2022-08-05T19:18:22.382Z,35.30
2022-08-05T19:20:53.375Z,16.70
2022-08-05T19:24:06.877Z,1.00
2022-08-05T19:26:11.919Z,1.00
2022-08-05T19:28:43.184Z,1.00
2022-08-05T19:31:17.966Z,1.00
2022-08-05T19:33:56.330Z,1.00
2022-08-05T19:36:29.569Z,1.00
2022-08-05T19:39:02.020Z,1.00
2022-08-05T19:42:05.330Z,1.00
2022-08-05T19:44:22.796Z,1.00
2022-08-05T19:47:01.193Z,1.00
2022-08-05T19:49:30.350Z,1.00
2022-08-05T19:52:08.413Z,1.00
2022-08-05T19:54:49.908Z,1.00
2022-08-05T19:57:19.404Z,1.00
2022-08-05T20:00:10.680Z,1.00
2022-08-05T20:02:42.821Z,1.00
2022-08-05T20:05:16.420Z,1.00
2022-08-05T20:07:57.974Z,1.00
2022-08-05T20:10:28.251Z,1.00
2022-08-05T20:12:58.049Z,1.00
2022-08-05T20:15:52.575Z,1.00
2022-08-05T20:18:34.041Z,1.00
2022-08-05T20:21:06.910Z,1.00
2022-08-05T20:23:39.988Z,1.00
2022-08-05T20:26:20.211Z,40.80
2022-08-05T20:28:51.447Z,1.00
2022-08-05T20:31:36.759Z,1.00
2022-08-05T20:34:14.216Z,1.00
2022-08-05T20:36:44.186Z,1.00
2022-08-05T20:39:16.704Z,1.00
2022-08-05T20:41:47.651Z,1.00
2022-08-05T20:44:29.880Z,1.00
2022-08-05T20:47:02.047Z,1.00
2022-08-05T20:49:39.642Z,1.00
2022-08-05T20:52:12.373Z,5.70
2022-08-05T20:54:59.591Z,48.00
2022-08-05T20:57:43.543Z,1.00
2022-08-05T21:00:41.085Z,34.40
2022-08-05T21:03:07.921Z,54.20
2022-08-05T21:05:54.049Z,99.90
2022-08-05T21:08:27.938Z,84.80
2022-08-05T21:11:11.793Z,99.90
2022-08-05T21:13:47.500Z,99.90
2022-08-05T21:16:29.818Z,1.00
2022-08-05T21:19:01.140Z,1.00
2022-08-05T21:21:43.776Z,1.00
2022-08-05T21:24:20.058Z,1.00
2022-08-05T21:26:53.660Z,1.00
2022-08-05T21:29:32.142Z,42.90
2022-08-05T21:32:03.571Z,35.80
2022-08-05T21:34:33.137Z,26.00
2022-08-05T21:37:08.208Z,2.40
2022-08-05T21:39:40.245Z,17.80
2022-08-05T21:42:30.560Z,1.00
2022-08-05T21:44:59.433Z,1.00
2022-08-05T21:47:55.568Z,1.00
2022-08-05T21:50:18.822Z,1.00
2022-08-05T21:52:52.745Z,3.60
2022-08-05T21:56:04.486Z,1.00
2022-08-05T21:58:11.689Z,5.30
2022-08-05T22:00:41.000Z,19.30
2022-08-05T22:03:20.531Z,2.60
2022-08-05T22:06:09.209Z,18.20
2022-08-05T22:08:42.712Z,26.20
2022-08-05T22:11:15.653Z,40.20
2022-08-05T22:14:18.330Z,4.10
2022-08-05T22:16:51.125Z,4.90
2022-08-05T22:20:00.226Z,29.10
2022-08-05T22:22:11.201Z,47.60
2022-08-05T22:24:59.680Z,93.50
2022-08-05T22:28:09.152Z,99.90
2022-08-05T22:30:55.542Z,99.90
2022-08-05T22:33:57.796Z,99.90
2022-08-05T22:36:18.801Z,99.90
2022-08-05T22:38:48.908Z,99.90
2022-08-05T22:42:04.860Z,99.90
2022-08-05T22:44:11.843Z,99.90
2022-08-05T22:46:41.376Z,99.90
2022-08-05T22:49:12.432Z,99.90
2022-08-05T22:52:05.841Z,99.90
2022-08-05T22:54:37.257Z,99.90
2022-08-05T22:57:09.748Z,99.90
2022-08-05T22:59:45.915Z,99.90
2022-08-05T23:02:29.176Z,99.90
2022-08-05T23:05:01.511Z,99.90
2022-08-05T23:07:45.449Z,99.90
2022-08-05T23:10:19.935Z,99.90
2022-08-05T23:12:54.492Z,99.90
2022-08-05T23:15:29.395Z,97.80
2022-08-05T23:18:03.418Z,58.50
2022-08-05T23:20:37.250Z,79.80
2022-08-05T23:23:08.607Z,62.90
2022-08-05T23:25:51.215Z,82.90
2022-08-05T23:28:29.243Z,99.90
2022-08-05T23:31:16.444Z,99.90
2022-08-05T23:34:05.106Z,99.90
2022-08-05T23:36:39.942Z,99.90
2022-08-05T23:39:16.358Z,99.90
2022-08-05T23:41:54.023Z,99.90
2022-08-05T23:44:31.394Z,99.90
2022-08-05T23:47:02.419Z,50.60
2022-08-05T23:49:45.706Z,59.50
2022-08-05T23:52:36.137Z,99.90
2022-08-05T23:55:20.152Z,99.90
2022-08-05T23:57:51.284Z,99.90
